Upstream stations:
Downstream station:
SHEF ID: WHTO2 Canadian River near Whitefield,
STATION TYPE:
Regulating: Stage = 17.50, Flow = 84267
PRECIP STAGE STAGE(2) RIV-FLOW
in ft ft cfs
Ccp-Rev Ccp-Rev Ccp-Rev Ccp-Rev
(US/Central)
03/22 00:00 0.00 2.79 2.78 1595
03/22 01:00 0.00 3.16 3.15 2170
03/22 02:00 0.00 3.32 3.31 2420
03/22 03:00 0.00 3.34 3.33 2452
03/22 04:00 0.00 3.30 3.29 2389
03/22 05:00 0.00 3.19 3.18 2220
03/22 06:00 0.00 3.02 3.01 1948
03/22 07:00 0.00 2.83 2.81 1658
03/22 08:00 0.00 2.64 2.62 1376
03/22 09:00 0.00 2.48 2.46 1167
03/22 10:00 0.00 2.33 2.32 978
03/22 11:00 0.00 2.21 2.14 840
03/22 12:00 0.00 2.11 2.07 736
03/22 13:00 0.00 2.03 1.94 661
03/22 14:00 0.00 1.96 1.91 600
03/22 15:00 0.00 1.90 1.84 551
03/22 16:00 0.00 1.85 1.80 510
03/22 17:00 0.00 1.79 1.71 462
03/22 18:00 0.00 1.76 1.68 439
03/22 19:00 0.00 1.73 1.65 417
03/22 20:00 0.00 1.73 1.62 417
03/22 21:00 0.00 1.72 1.60 410
03/22 22:00 0.00 1.72 1.60 410
03/22 23:00 ---- ---- ---- ----